sensor_id;sensor_type;location;lat;lon;timestamp;P1;durP1;ratioP1;P2;durP2;ratioP2
34926;SDS011;21132;48.308;14.274;2022-11-12T00:01:21;11.98;;;7.78;;
34926;SDS011;21132;48.308;14.274;2022-11-12T00:03:47;13.88;;;8.60;;
34926;SDS011;21132;48.308;14.274;2022-11-12T00:06:13;11.13;;;7.30;;
34926;SDS011;21132;48.308;14.274;2022-11-12T00:08:38;12.75;;;7.57;;
34926;SDS011;21132;48.308;14.274;2022-11-12T00:11:04;10.48;;;6.93;;
34926;SDS011;21132;48.308;14.274;2022-11-12T00:13:31;11.70;;;6.32;;
34926;SDS011;21132;48.308;14.274;2022-11-12T00:15:57;14.43;;;7.55;;
34926;SDS011;21132;48.308;14.274;2022-11-12T00:18:23;16.90;;;7.65;;
34926;SDS011;21132;48.308;14.274;2022-11-12T00:20:49;15.75;;;9.15;;
34926;SDS011;21132;48.308;14.274;2022-11-12T00:23:14;19.63;;;8.98;;
34926;SDS011;21132;48.308;14.274;2022-11-12T00:25:40;15.27;;;9.43;;
34926;SDS011;21132;48.308;14.274;2022-11-12T00:28:07;18.42;;;9.13;;
34926;SDS011;21132;48.308;14.274;2022-11-12T00:30:36;16.95;;;9.43;;
34926;SDS011;21132;48.308;14.274;2022-11-12T00:33:03;24.10;;;10.30;;
34926;SDS011;21132;48.308;14.274;2022-11-12T00:35:30;28.70;;;11.88;;
34926;SDS011;21132;48.308;14.274;2022-11-12T00:37:57;17.67;;;10.15;;
34926;SDS011;21132;48.308;14.274;2022-11-12T00:40:23;33.00;;;10.70;;
34926;SDS011;21132;48.308;14.274;2022-11-12T00:42:50;32.85;;;11.20;;
34926;SDS011;21132;48.308;14.274;2022-11-12T00:45:16;31.50;;;11.70;;
34926;SDS011;21132;48.308;14.274;2022-11-12T00:47:43;23.42;;;11.55;;
34926;SDS011;21132;48.308;14.274;2022-11-12T00:50:09;42.25;;;13.13;;
34926;SDS011;21132;48.308;14.274;2022-11-12T00:52:35;19.20;;;11.30;;
34926;SDS011;21132;48.308;14.274;2022-11-12T00:55:01;41.88;;;12.68;;
34926;SDS011;21132;48.308;14.274;2022-11-12T00:57:27;74.10;;;13.48;;
34926;SDS011;21132;48.308;14.274;2022-11-12T00:59:53;22.38;;;12.60;;
34926;SDS011;21132;48.308;14.274;2022-11-12T01:02:18;21.98;;;12.15;;
34926;SDS011;21132;48.308;14.274;2022-11-12T01:04:46;24.60;;;12.18;;
34926;SDS011;21132;48.308;14.274;2022-11-12T01:07:12;32.88;;;12.65;;
34926;SDS011;21132;48.308;14.274;2022-11-12T01:09:40;29.45;;;13.18;;
34926;SDS011;21132;48.308;14.274;2022-11-12T01:12:06;68.88;;;12.63;;
34926;SDS011;21132;48.308;14.274;2022-11-12T01:14:31;36.65;;;12.38;;
34926;SDS011;21132;48.308;14.274;2022-11-12T01:16:57;32.75;;;11.90;;
34926;SDS011;21132;48.308;14.274;2022-11-12T01:19:23;30.42;;;11.88;;
34926;SDS011;21132;48.308;14.274;2022-11-12T01:21:49;65.03;;;11.57;;
34926;SDS011;21132;48.308;14.274;2022-11-12T01:24:15;25.58;;;13.00;;
34926;SDS011;21132;48.308;14.274;2022-11-12T01:26:41;44.55;;;11.85;;
34926;SDS011;21132;48.308;14.274;2022-11-12T01:29:06;18.50;;;11.38;;
34926;SDS011;21132;48.308;14.274;2022-11-12T01:31:34;21.80;;;12.30;;
34926;SDS011;21132;48.308;14.274;2022-11-12T01:34:02;46.15;;;12.20;;
34926;SDS011;21132;48.308;14.274;2022-11-12T01:36:36;44.28;;;12.55;;
34926;SDS011;21132;48.308;14.274;2022-11-12T01:39:03;48.05;;;11.70;;
34926;SDS011;21132;48.308;14.274;2022-11-12T01:41:31;30.08;;;11.27;;
34926;SDS011;21132;48.308;14.274;2022-11-12T01:46:30;42.60;;;14.18;;
34926;SDS011;21132;48.308;14.274;2022-11-12T01:49:00;32.10;;;12.77;;
34926;SDS011;21132;48.308;14.274;2022-11-12T01:51:36;50.20;;;13.32;;
34926;SDS011;21132;48.308;14.274;2022-11-12T01:54:06;60.05;;;15.60;;
34926;SDS011;21132;48.308;14.274;2022-11-12T01:56:34;27.40;;;13.10;;
34926;SDS011;21132;48.308;14.274;2022-11-12T01:59:03;45.10;;;14.57;;
34926;SDS011;21132;48.308;14.274;2022-11-12T02:01:35;50.47;;;14.45;;
34926;SDS011;21132;48.308;14.274;2022-11-12T02:04:02;24.30;;;12.50;;
34926;SDS011;21132;48.308;14.274;2022-11-12T02:06:28;34.85;;;13.40;;
34926;SDS011;21132;48.308;14.274;2022-11-12T02:08:55;24.50;;;12.80;;
34926;SDS011;21132;48.308;14.274;2022-11-12T02:11:22;25.25;;;11.55;;
34926;SDS011;21132;48.308;14.274;2022-11-12T02:13:48;33.75;;;10.98;;
34926;SDS011;21132;48.308;14.274;2022-11-12T02:18:57;55.90;;;9.45;;
34926;SDS011;21132;48.308;14.274;2022-11-12T02:21:23;19.38;;;8.50;;
34926;SDS011;21132;48.308;14.274;2022-11-12T02:26:49;19.17;;;9.43;;
34926;SDS011;21132;48.308;14.274;2022-11-12T02:29:17;14.85;;;8.65;;
34926;SDS011;21132;48.308;14.274;2022-11-12T02:31:43;22.30;;;7.45;;
34926;SDS011;21132;48.308;14.274;2022-11-12T02:34:09;19.23;;;9.90;;
34926;SDS011;21132;48.308;14.274;2022-11-12T02:36:35;16.58;;;8.98;;
34926;SDS011;21132;48.308;14.274;2022-11-12T02:39:00;42.75;;;11.30;;
34926;SDS011;21132;48.308;14.274;2022-11-12T02:41:27;19.98;;;7.88;;
34926;SDS011;21132;48.308;14.274;2022-11-12T02:43:53;17.73;;;8.98;;
34926;SDS011;21132;48.308;14.274;2022-11-12T02:46:19;25.08;;;10.25;;
34926;SDS011;21132;48.308;14.274;2022-11-12T02:48:45;30.80;;;10.00;;
34926;SDS011;21132;48.308;14.274;2022-11-12T02:51:11;30.92;;;8.65;;
34926;SDS011;21132;48.308;14.274;2022-11-12T02:53:36;15.48;;;8.70;;
34926;SDS011;21132;48.308;14.274;2022-11-12T02:56:05;19.45;;;8.68;;
34926;SDS011;21132;48.308;14.274;2022-11-12T02:58:31;28.02;;;10.20;;
34926;SDS011;21132;48.308;14.274;2022-11-12T03:00:57;22.60;;;11.15;;
34926;SDS011;21132;48.308;14.274;2022-11-12T03:03:23;22.13;;;11.65;;
34926;SDS011;21132;48.308;14.274;2022-11-12T03:05:59;24.85;;;11.43;;
34926;SDS011;21132;48.308;14.274;2022-11-12T03:08:25;21.88;;;11.18;;
34926;SDS011;21132;48.308;14.274;2022-11-12T03:10:52;16.25;;;9.77;;
34926;SDS011;21132;48.308;14.274;2022-11-12T03:13:18;35.47;;;11.18;;
34926;SDS011;21132;48.308;14.274;2022-11-12T03:15:45;24.60;;;10.52;;
34926;SDS011;21132;48.308;14.274;2022-11-12T03:18:11;31.13;;;10.85;;
34926;SDS011;21132;48.308;14.274;2022-11-12T03:20:37;20.85;;;9.52;;
34926;SDS011;21132;48.308;14.274;2022-11-12T03:23:07;26.52;;;9.10;;
34926;SDS011;21132;48.308;14.274;2022-11-12T03:25:34;14.52;;;7.20;;
34926;SDS011;21132;48.308;14.274;2022-11-12T03:28:02;9.15;;;6.38;;
34926;SDS011;21132;48.308;14.274;2022-11-12T03:30:33;19.98;;;7.35;;
34926;SDS011;21132;48.308;14.274;2022-11-12T03:33:00;18.25;;;7.32;;
34926;SDS011;21132;48.308;14.274;2022-11-12T03:35:26;8.70;;;6.05;;
34926;SDS011;21132;48.308;14.274;2022-11-12T03:37:52;17.08;;;6.78;;
34926;SDS011;21132;48.308;14.274;2022-11-12T03:40:18;7.63;;;5.53;;
34926;SDS011;21132;48.308;14.274;2022-11-12T03:42:48;8.38;;;5.65;;
34926;SDS011;21132;48.308;14.274;2022-11-12T03:45:15;18.77;;;6.32;;
34926;SDS011;21132;48.308;14.274;2022-11-12T03:47:43;13.40;;;6.47;;
34926;SDS011;21132;48.308;14.274;2022-11-12T03:50:13;8.70;;;5.32;;
34926;SDS011;21132;48.308;14.274;2022-11-12T03:52:46;13.40;;;5.85;;
34926;SDS011;21132;48.308;14.274;2022-11-12T03:55:14;11.20;;;4.72;;
34926;SDS011;21132;48.308;14.274;2022-11-12T03:57:41;28.65;;;5.20;;
34926;SDS011;21132;48.308;14.274;2022-11-12T04:00:08;13.85;;;4.97;;
34926;SDS011;21132;48.308;14.274;2022-11-12T04:02:36;12.55;;;4.35;;
34926;SDS011;21132;48.308;14.274;2022-11-12T04:05:03;8.95;;;3.85;;
34926;SDS011;21132;48.308;14.274;2022-11-12T04:07:48;6.60;;;3.70;;
34926;SDS011;21132;48.308;14.274;2022-11-12T04:10:34;4.55;;;3.50;;
34926;SDS011;21132;48.308;14.274;2022-11-12T04:13:00;5.78;;;3.42;;
34926;SDS011;21132;48.308;14.274;2022-11-12T04:15:44;5.50;;;3.53;;
34926;SDS011;21132;48.308;14.274;2022-11-12T04:18:29;13.38;;;4.32;;
34926;SDS011;21132;48.308;14.274;2022-11-12T04:21:14;9.70;;;4.32;;
34926;SDS011;21132;48.308;14.274;2022-11-12T04:23:58;17.58;;;5.38;;
34926;SDS011;21132;48.308;14.274;2022-11-12T04:26:24;6.82;;;4.60;;
34926;SDS011;21132;48.308;14.274;2022-11-12T04:28:50;10.27;;;5.43;;
34926;SDS011;21132;48.308;14.274;2022-11-12T04:31:34;6.13;;;4.78;;
34926;SDS011;21132;48.308;14.274;2022-11-12T04:34:00;12.85;;;5.15;;
34926;SDS011;21132;48.308;14.274;2022-11-12T04:36:45;50.33;;;6.25;;
34926;SDS011;21132;48.308;14.274;2022-11-12T04:39:11;17.50;;;5.45;;
34926;SDS011;21132;48.308;14.274;2022-11-12T04:41:37;10.70;;;5.68;;
34926;SDS011;21132;48.308;14.274;2022-11-12T04:47:05;30.67;;;6.13;;
34926;SDS011;21132;48.308;14.274;2022-11-12T04:49:31;31.55;;;5.03;;
34926;SDS011;21132;48.308;14.274;2022-11-12T04:51:57;17.77;;;6.25;;
34926;SDS011;21132;48.308;14.274;2022-11-12T04:54:29;11.50;;;4.88;;
34926;SDS011;21132;48.308;14.274;2022-11-12T04:56:54;16.98;;;4.75;;
34926;SDS011;21132;48.308;14.274;2022-11-12T04:59:20;5.82;;;4.43;;
34926;SDS011;21132;48.308;14.274;2022-11-12T05:01:46;7.80;;;5.00;;
34926;SDS011;21132;48.308;14.274;2022-11-12T05:04:11;6.82;;;4.60;;
34926;SDS011;21132;48.308;14.274;2022-11-12T05:06:37;7.30;;;4.38;;
34926;SDS011;21132;48.308;14.274;2022-11-12T05:09:16;8.05;;;5.18;;
34926;SDS011;21132;48.308;14.274;2022-11-12T05:11:42;8.52;;;5.00;;
34926;SDS011;21132;48.308;14.274;2022-11-12T05:14:08;7.53;;;4.18;;
34926;SDS011;21132;48.308;14.274;2022-11-12T05:16:34;20.88;;;4.63;;
34926;SDS011;21132;48.308;14.274;2022-11-12T05:19:00;7.75;;;4.82;;
34926;SDS011;21132;48.308;14.274;2022-11-12T05:21:25;11.45;;;6.45;;
34926;SDS011;21132;48.308;14.274;2022-11-12T05:24:09;15.95;;;6.25;;
34926;SDS011;21132;48.308;14.274;2022-11-12T05:26:35;13.20;;;7.20;;
34926;SDS011;21132;48.308;14.274;2022-11-12T05:29:01;13.38;;;6.70;;
34926;SDS011;21132;48.308;14.274;2022-11-12T05:31:27;24.23;;;7.50;;
34926;SDS011;21132;48.308;14.274;2022-11-12T05:33:52;17.05;;;7.97;;
34926;SDS011;21132;48.308;14.274;2022-11-12T05:36:18;31.05;;;9.70;;
34926;SDS011;21132;48.308;14.274;2022-11-12T05:38:44;16.00;;;7.97;;
34926;SDS011;21132;48.308;14.274;2022-11-12T05:41:09;19.45;;;9.13;;
34926;SDS011;21132;48.308;14.274;2022-11-12T05:43:35;23.17;;;8.68;;
34926;SDS011;21132;48.308;14.274;2022-11-12T05:46:01;32.42;;;9.43;;
34926;SDS011;21132;48.308;14.274;2022-11-12T05:48:27;28.13;;;10.38;;
34926;SDS011;21132;48.308;14.274;2022-11-12T05:50:52;39.72;;;9.88;;
34926;SDS011;21132;48.308;14.274;2022-11-12T05:53:18;43.78;;;9.70;;
34926;SDS011;21132;48.308;14.274;2022-11-12T05:55:44;26.75;;;10.02;;
34926;SDS011;21132;48.308;14.274;2022-11-12T05:58:10;56.20;;;13.02;;
34926;SDS011;21132;48.308;14.274;2022-11-12T06:00:36;31.90;;;12.32;;
34926;SDS011;21132;48.308;14.274;2022-11-12T06:03:09;32.75;;;10.52;;
34926;SDS011;21132;48.308;14.274;2022-11-12T06:05:35;34.67;;;11.40;;
34926;SDS011;21132;48.308;14.274;2022-11-12T06:08:02;33.72;;;10.65;;
34926;SDS011;21132;48.308;14.274;2022-11-12T06:10:29;20.65;;;10.55;;
34926;SDS011;21132;48.308;14.274;2022-11-12T06:12:58;21.98;;;10.40;;
34926;SDS011;21132;48.308;14.274;2022-11-12T06:15:24;44.38;;;11.63;;
34926;SDS011;21132;48.308;14.274;2022-11-12T06:17:53;49.97;;;15.80;;
34926;SDS011;21132;48.308;14.274;2022-11-12T06:20:19;29.88;;;11.88;;
34926;SDS011;21132;48.308;14.274;2022-11-12T06:22:46;36.55;;;13.18;;
34926;SDS011;21132;48.308;14.274;2022-11-12T06:25:12;60.83;;;13.38;;
34926;SDS011;21132;48.308;14.274;2022-11-12T06:27:38;29.17;;;11.02;;
34926;SDS011;21132;48.308;14.274;2022-11-12T06:30:04;49.42;;;11.90;;
34926;SDS011;21132;48.308;14.274;2022-11-12T06:32:31;33.70;;;11.45;;
34926;SDS011;21132;48.308;14.274;2022-11-12T06:34:57;27.92;;;11.48;;
34926;SDS011;21132;48.308;14.274;2022-11-12T06:37:23;34.40;;;10.75;;
34926;SDS011;21132;48.308;14.274;2022-11-12T06:39:49;25.67;;;11.80;;
34926;SDS011;21132;48.308;14.274;2022-11-12T06:42:14;36.67;;;12.40;;
34926;SDS011;21132;48.308;14.274;2022-11-12T06:44:40;24.05;;;11.60;;
34926;SDS011;21132;48.308;14.274;2022-11-12T06:47:07;22.23;;;12.45;;
34926;SDS011;21132;48.308;14.274;2022-11-12T06:49:35;59.28;;;13.60;;
34926;SDS011;21132;48.308;14.274;2022-11-12T06:52:00;28.25;;;13.82;;
34926;SDS011;21132;48.308;14.274;2022-11-12T06:54:26;37.00;;;14.40;;
34926;SDS011;21132;48.308;14.274;2022-11-12T06:56:52;29.90;;;13.73;;
34926;SDS011;21132;48.308;14.274;2022-11-12T06:59:18;62.30;;;16.17;;
34926;SDS011;21132;48.308;14.274;2022-11-12T07:01:44;36.25;;;14.75;;
34926;SDS011;21132;48.308;14.274;2022-11-12T07:04:09;31.73;;;15.18;;
34926;SDS011;21132;48.308;14.274;2022-11-12T07:06:35;31.95;;;16.02;;
34926;SDS011;21132;48.308;14.274;2022-11-12T07:09:01;38.45;;;15.80;;
34926;SDS011;21132;48.308;14.274;2022-11-12T07:11:28;41.83;;;17.17;;
34926;SDS011;21132;48.308;14.274;2022-11-12T07:13:54;32.17;;;16.52;;
34926;SDS011;21132;48.308;14.274;2022-11-12T07:16:20;45.85;;;17.98;;
34926;SDS011;21132;48.308;14.274;2022-11-12T07:18:47;45.92;;;16.70;;
34926;SDS011;21132;48.308;14.274;2022-11-12T07:21:15;36.33;;;18.25;;
34926;SDS011;21132;48.308;14.274;2022-11-12T07:23:44;41.33;;;18.30;;
34926;SDS011;21132;48.308;14.274;2022-11-12T07:26:12;47.08;;;19.92;;
34926;SDS011;21132;48.308;14.274;2022-11-12T07:28:45;41.63;;;17.70;;
34926;SDS011;21132;48.308;14.274;2022-11-12T07:31:12;45.08;;;19.13;;
34926;SDS011;21132;48.308;14.274;2022-11-12T07:33:39;39.13;;;16.20;;
34926;SDS011;21132;48.308;14.274;2022-11-12T07:36:07;39.72;;;17.85;;
34926;SDS011;21132;48.308;14.274;2022-11-12T07:38:36;45.00;;;18.48;;
34926;SDS011;21132;48.308;14.274;2022-11-12T07:41:06;52.10;;;20.27;;
34926;SDS011;21132;48.308;14.274;2022-11-12T07:43:35;71.65;;;21.38;;
34926;SDS011;21132;48.308;14.274;2022-11-12T07:46:02;56.95;;;23.60;;
34926;SDS011;21132;48.308;14.274;2022-11-12T07:48:30;72.03;;;24.55;;
34926;SDS011;21132;48.308;14.274;2022-11-12T07:51:03;91.97;;;26.85;;
34926;SDS011;21132;48.308;14.274;2022-11-12T07:53:31;89.68;;;28.15;;
34926;SDS011;21132;48.308;14.274;2022-11-12T07:55:58;86.63;;;32.05;;
34926;SDS011;21132;48.308;14.274;2022-11-12T07:58:26;114.90;;;33.28;;
34926;SDS011;21132;48.308;14.274;2022-11-12T08:00:54;85.20;;;33.63;;
34926;SDS011;21132;48.308;14.274;2022-11-12T08:03:20;87.30;;;35.90;;
34926;SDS011;21132;48.308;14.274;2022-11-12T08:05:46;90.97;;;33.42;;
34926;SDS011;21132;48.308;14.274;2022-11-12T08:08:12;87.97;;;35.22;;
34926;SDS011;21132;48.308;14.274;2022-11-12T08:10:38;92.10;;;33.83;;
34926;SDS011;21132;48.308;14.274;2022-11-12T08:13:04;83.35;;;32.95;;
34926;SDS011;21132;48.308;14.274;2022-11-12T08:15:30;85.93;;;34.30;;
34926;SDS011;21132;48.308;14.274;2022-11-12T08:17:56;89.85;;;31.70;;
34926;SDS011;21132;48.308;14.274;2022-11-12T08:20:22;102.45;;;34.70;;
34926;SDS011;21132;48.308;14.274;2022-11-12T08:22:48;99.65;;;35.50;;
34926;SDS011;21132;48.308;14.274;2022-11-12T08:25:14;94.15;;;34.83;;
34926;SDS011;21132;48.308;14.274;2022-11-12T08:27:40;89.57;;;34.70;;
34926;SDS011;21132;48.308;14.274;2022-11-12T08:30:06;96.03;;;37.20;;
34926;SDS011;21132;48.308;14.274;2022-11-12T08:32:32;98.68;;;36.05;;
34926;SDS011;21132;48.308;14.274;2022-11-12T08:34:58;76.75;;;31.58;;
34926;SDS011;21132;48.308;14.274;2022-11-12T08:37:24;83.60;;;33.08;;
34926;SDS011;21132;48.308;14.274;2022-11-12T08:39:50;81.60;;;33.97;;
34926;SDS011;21132;48.308;14.274;2022-11-12T08:42:15;108.03;;;36.85;;
34926;SDS011;21132;48.308;14.274;2022-11-12T08:44:41;80.68;;;35.80;;
34926;SDS011;21132;48.308;14.274;2022-11-12T08:47:07;79.00;;;31.77;;
34926;SDS011;21132;48.308;14.274;2022-11-12T08:49:33;63.92;;;30.23;;
34926;SDS011;21132;48.308;14.274;2022-11-12T08:51:58;67.63;;;31.33;;
34926;SDS011;21132;48.308;14.274;2022-11-12T08:54:24;76.28;;;32.33;;
34926;SDS011;21132;48.308;14.274;2022-11-12T08:56:50;72.70;;;31.73;;
34926;SDS011;21132;48.308;14.274;2022-11-12T08:59:16;70.35;;;32.85;;
34926;SDS011;21132;48.308;14.274;2022-11-12T09:01:41;61.88;;;30.20;;
34926;SDS011;21132;48.308;14.274;2022-11-12T09:04:07;67.13;;;31.52;;
34926;SDS011;21132;48.308;14.274;2022-11-12T09:06:33;77.00;;;33.03;;
34926;SDS011;21132;48.308;14.274;2022-11-12T09:08:59;64.15;;;30.63;;
34926;SDS011;21132;48.308;14.274;2022-11-12T09:11:25;62.83;;;29.85;;
34926;SDS011;21132;48.308;14.274;2022-11-12T09:13:53;60.70;;;28.00;;
34926;SDS011;21132;48.308;14.274;2022-11-12T09:16:19;65.72;;;25.77;;
34926;SDS011;21132;48.308;14.274;2022-11-12T09:18:46;76.80;;;29.55;;
34926;SDS011;21132;48.308;14.274;2022-11-12T09:21:12;60.13;;;27.02;;
34926;SDS011;21132;48.308;14.274;2022-11-12T09:23:38;56.05;;;26.10;;
34926;SDS011;21132;48.308;14.274;2022-11-12T09:26:04;58.47;;;24.83;;
34926;SDS011;21132;48.308;14.274;2022-11-12T09:28:31;48.78;;;24.58;;
34926;SDS011;21132;48.308;14.274;2022-11-12T09:30:57;56.92;;;24.27;;
34926;SDS011;21132;48.308;14.274;2022-11-12T09:33:24;50.15;;;24.13;;
34926;SDS011;21132;48.308;14.274;2022-11-12T09:35:59;48.42;;;22.45;;
34926;SDS011;21132;48.308;14.274;2022-11-12T09:38:26;37.03;;;20.40;;
34926;SDS011;21132;48.308;14.274;2022-11-12T09:43:28;32.17;;;16.85;;
34926;SDS011;21132;48.308;14.274;2022-11-12T09:46:59;30.48;;;15.23;;
34926;SDS011;21132;48.308;14.274;2022-11-12T09:49:42;27.98;;;14.32;;
34926;SDS011;21132;48.308;14.274;2022-11-12T09:52:03;33.60;;;16.58;;
34926;SDS011;21132;48.308;14.274;2022-11-12T09:54:36;32.83;;;18.85;;
34926;SDS011;21132;48.308;14.274;2022-11-12T09:57:02;37.60;;;17.85;;
34926;SDS011;21132;48.308;14.274;2022-11-12T09:59:33;31.75;;;17.60;;
34926;SDS011;21132;48.308;14.274;2022-11-12T10:02:05;34.50;;;18.08;;
34926;SDS011;21132;48.308;14.274;2022-11-12T10:07:37;32.85;;;15.90;;
34926;SDS011;21132;48.308;14.274;2022-11-12T10:10:19;36.20;;;18.40;;
34926;SDS011;21132;48.308;14.274;2022-11-12T10:13:04;30.05;;;15.18;;
34926;SDS011;21132;48.308;14.274;2022-11-12T10:21:50;27.48;;;14.70;;
34926;SDS011;21132;48.308;14.274;2022-11-12T10:24:36;29.92;;;16.60;;
34926;SDS011;21132;48.308;14.274;2022-11-12T10:27:20;33.35;;;15.80;;
34926;SDS011;21132;48.308;14.274;2022-11-12T10:30:04;32.30;;;16.40;;
34926;SDS011;21132;48.308;14.274;2022-11-12T10:32:31;35.15;;;17.60;;
34926;SDS011;21132;48.308;14.274;2022-11-12T10:35:00;34.88;;;15.45;;
34926;SDS011;21132;48.308;14.274;2022-11-12T10:37:28;38.28;;;17.98;;
34926;SDS011;21132;48.308;14.274;2022-11-12T10:39:57;31.80;;;16.42;;
34926;SDS011;21132;48.308;14.274;2022-11-12T10:42:23;34.22;;;17.40;;
34926;SDS011;21132;48.308;14.274;2022-11-12T10:44:49;39.38;;;19.85;;
34926;SDS011;21132;48.308;14.274;2022-11-12T10:47:23;34.50;;;17.77;;
34926;SDS011;21132;48.308;14.274;2022-11-12T10:50:30;32.80;;;17.58;;
34926;SDS011;21132;48.308;14.274;2022-11-12T10:53:08;41.00;;;18.85;;
34926;SDS011;21132;48.308;14.274;2022-11-12T10:55:36;37.08;;;19.13;;
34926;SDS011;21132;48.308;14.274;2022-11-12T10:58:18;38.03;;;19.52;;
34926;SDS011;21132;48.308;14.274;2022-11-12T11:01:00;39.17;;;18.83;;
34926;SDS011;21132;48.308;14.274;2022-11-12T11:03:43;38.92;;;20.20;;
34926;SDS011;21132;48.308;14.274;2022-11-12T11:06:21;35.65;;;20.27;;
34926;SDS011;21132;48.308;14.274;2022-11-12T11:08:51;40.17;;;19.55;;
34926;SDS011;21132;48.308;14.274;2022-11-12T11:11:20;35.63;;;19.45;;
34926;SDS011;21132;48.308;14.274;2022-11-12T11:13:46;32.60;;;18.63;;
34926;SDS011;21132;48.308;14.274;2022-11-12T11:16:18;35.85;;;19.35;;
34926;SDS011;21132;48.308;14.274;2022-11-12T11:18:48;36.40;;;19.95;;
34926;SDS011;21132;48.308;14.274;2022-11-12T11:29:14;29.05;;;17.35;;
34926;SDS011;21132;48.308;14.274;2022-11-12T11:32:00;39.20;;;21.58;;
34926;SDS011;21132;48.308;14.274;2022-11-12T11:37:45;33.67;;;19.30;;
34926;SDS011;21132;48.308;14.274;2022-11-12T11:48:14;41.22;;;24.20;;
34926;SDS011;21132;48.308;14.274;2022-11-12T11:56:28;43.45;;;24.08;;
34926;SDS011;21132;48.308;14.274;2022-11-12T11:59:22;41.67;;;24.10;;
34926;SDS011;21132;48.308;14.274;2022-11-12T12:10:21;47.80;;;25.08;;
34926;SDS011;21132;48.308;14.274;2022-11-12T12:18:19;44.28;;;25.02;;
34926;SDS011;21132;48.308;14.274;2022-11-12T12:21:01;44.28;;;24.90;;
34926;SDS011;21132;48.308;14.274;2022-11-12T12:23:40;43.65;;;22.15;;
34926;SDS011;21132;48.308;14.274;2022-11-12T12:26:34;45.25;;;21.13;;
34926;SDS011;21132;48.308;14.274;2022-11-12T12:29:04;40.00;;;23.38;;
34926;SDS011;21132;48.308;14.274;2022-11-12T12:31:45;39.20;;;21.50;;
34926;SDS011;21132;48.308;14.274;2022-11-12T12:34:32;38.03;;;21.83;;
34926;SDS011;21132;48.308;14.274;2022-11-12T12:37:09;38.72;;;20.90;;
34926;SDS011;21132;48.308;14.274;2022-11-12T12:43:32;41.10;;;21.48;;
34926;SDS011;21132;48.308;14.274;2022-11-12T12:45:42;36.10;;;19.30;;
34926;SDS011;21132;48.308;14.274;2022-11-12T12:48:22;36.88;;;20.30;;
34926;SDS011;21132;48.308;14.274;2022-11-12T12:50:53;38.63;;;21.70;;
34926;SDS011;21132;48.308;14.274;2022-11-12T12:55:54;38.60;;;20.20;;
34926;SDS011;21132;48.308;14.274;2022-11-12T12:58:30;37.00;;;21.33;;
34926;SDS011;21132;48.308;14.274;2022-11-12T13:04:04;38.92;;;22.83;;
34926;SDS011;21132;48.308;14.274;2022-11-12T13:07:05;38.38;;;22.02;;
34926;SDS011;21132;48.308;14.274;2022-11-12T13:09:24;41.58;;;21.83;;
34926;SDS011;21132;48.308;14.274;2022-11-12T13:11:52;40.00;;;21.42;;
34926;SDS011;21132;48.308;14.274;2022-11-12T13:16:56;37.13;;;22.90;;
34926;SDS011;21132;48.308;14.274;2022-11-12T13:19:27;42.58;;;22.92;;
34926;SDS011;21132;48.308;14.274;2022-11-12T13:37:57;79.85;;;34.20;;
34926;SDS011;21132;48.308;14.274;2022-11-12T13:40:51;93.40;;;40.13;;
34926;SDS011;21132;48.308;14.274;2022-11-12T13:43:41;79.93;;;37.13;;
34926;SDS011;21132;48.308;14.274;2022-11-12T13:51:11;79.38;;;35.17;;
34926;SDS011;21132;48.308;14.274;2022-11-12T13:53:59;103.25;;;44.10;;
34926;SDS011;21132;48.308;14.274;2022-11-12T13:56:29;149.20;;;60.20;;
34926;SDS011;21132;48.308;14.274;2022-11-12T14:01:42;153.55;;;61.70;;
34926;SDS011;21132;48.308;14.274;2022-11-12T14:04:12;146.30;;;59.38;;
34926;SDS011;21132;48.308;14.274;2022-11-12T14:06:43;148.32;;;59.53;;
34926;SDS011;21132;48.308;14.274;2022-11-12T14:17:10;101.50;;;44.35;;
34926;SDS011;21132;48.308;14.274;2022-11-12T14:22:42;80.47;;;37.97;;
34926;SDS011;21132;48.308;14.274;2022-11-12T14:25:12;92.35;;;40.10;;
34926;SDS011;21132;48.308;14.274;2022-11-12T14:27:46;83.63;;;39.40;;
34926;SDS011;21132;48.308;14.274;2022-11-12T14:30:21;83.22;;;37.67;;
34926;SDS011;21132;48.308;14.274;2022-11-12T14:32:50;88.25;;;37.95;;
34926;SDS011;21132;48.308;14.274;2022-11-12T14:35:25;82.13;;;38.28;;
34926;SDS011;21132;48.308;14.274;2022-11-12T14:40:44;87.45;;;38.22;;
34926;SDS011;21132;48.308;14.274;2022-11-12T14:45:53;79.57;;;37.78;;
34926;SDS011;21132;48.308;14.274;2022-11-12T14:48:21;92.22;;;41.45;;
34926;SDS011;21132;48.308;14.274;2022-11-12T14:50:47;105.97;;;45.03;;
34926;SDS011;21132;48.308;14.274;2022-11-12T14:53:25;119.78;;;48.80;;
34926;SDS011;21132;48.308;14.274;2022-11-12T14:55:56;115.53;;;48.22;;
34926;SDS011;21132;48.308;14.274;2022-11-12T14:58:24;106.57;;;45.47;;
34926;SDS011;21132;48.308;14.274;2022-11-12T15:00:52;113.22;;;47.63;;
34926;SDS011;21132;48.308;14.274;2022-11-12T15:03:23;115.70;;;47.25;;
34926;SDS011;21132;48.308;14.274;2022-11-12T15:08:32;114.88;;;46.75;;
34926;SDS011;21132;48.308;14.274;2022-11-12T15:11:20;108.55;;;46.58;;
34926;SDS011;21132;48.308;14.274;2022-11-12T15:14:08;124.43;;;49.25;;
34926;SDS011;21132;48.308;14.274;2022-11-12T15:16:46;136.10;;;51.38;;
34926;SDS011;21132;48.308;14.274;2022-11-12T15:21:43;127.43;;;51.13;;
34926;SDS011;21132;48.308;14.274;2022-11-12T15:31:28;104.43;;;44.40;;
34926;SDS011;21132;48.308;14.274;2022-11-12T15:33:53;104.40;;;44.20;;
34926;SDS011;21132;48.308;14.274;2022-11-12T15:36:39;95.00;;;40.50;;
34926;SDS011;21132;48.308;14.274;2022-11-12T15:39:09;125.63;;;50.55;;
34926;SDS011;21132;48.308;14.274;2022-11-12T15:41:38;112.72;;;48.70;;
34926;SDS011;21132;48.308;14.274;2022-11-12T15:44:04;100.30;;;43.35;;
34926;SDS011;21132;48.308;14.274;2022-11-12T15:46:32;102.13;;;42.85;;
34926;SDS011;21132;48.308;14.274;2022-11-12T15:48:58;87.32;;;39.25;;
34926;SDS011;21132;48.308;14.274;2022-11-12T15:51:23;94.28;;;39.22;;
34926;SDS011;21132;48.308;14.274;2022-11-12T15:53:49;92.15;;;40.42;;
34926;SDS011;21132;48.308;14.274;2022-11-12T15:56:16;92.57;;;40.72;;
34926;SDS011;21132;48.308;14.274;2022-11-12T15:58:45;111.15;;;45.20;;
34926;SDS011;21132;48.308;14.274;2022-11-12T16:01:11;111.55;;;45.53;;
34926;SDS011;21132;48.308;14.274;2022-11-12T16:03:37;102.03;;;42.58;;
34926;SDS011;21132;48.308;14.274;2022-11-12T16:06:03;124.13;;;47.50;;
34926;SDS011;21132;48.308;14.274;2022-11-12T16:08:29;121.93;;;48.28;;
34926;SDS011;21132;48.308;14.274;2022-11-12T16:10:55;123.05;;;49.42;;
34926;SDS011;21132;48.308;14.274;2022-11-12T16:13:28;139.90;;;51.92;;
34926;SDS011;21132;48.308;14.274;2022-11-12T16:16:00;189.20;;;67.90;;
34926;SDS011;21132;48.308;14.274;2022-11-12T16:18:30;186.50;;;66.00;;
34926;SDS011;21132;48.308;14.274;2022-11-12T16:20:56;199.05;;;71.63;;
34926;SDS011;21132;48.308;14.274;2022-11-12T16:23:22;193.32;;;68.68;;
34926;SDS011;21132;48.308;14.274;2022-11-12T16:25:48;189.43;;;67.97;;
34926;SDS011;21132;48.308;14.274;2022-11-12T16:28:15;174.32;;;63.55;;
34926;SDS011;21132;48.308;14.274;2022-11-12T16:30:43;174.38;;;62.38;;